Time;durP1;ratioP1;P1;durP2;ratioP2;P2;SDS_P1;SDS_P2;PMS_P1;PMS_P2;Temp;Humidity;BMP_temperature;BMP_pressure;BME280_temperature;BME280_humidity;BME280_pressure;Samples;Min_cycle;Max_cycle;Signal;HPM_P1;HPM_P2
2020/12/27 00:02:14;;;;;;;3.13;2.50;;;3.30;99.90;;;;;;4869471;29;20612;-94
2020/12/27 00:04:40;;;;;;;3.93;2.10;;;3.30;99.90;;;;;;4868065;29;20245;-96
2020/12/27 00:07:11;;;;;;;4.03;2.40;;;3.30;99.90;;;;;;4869136;29;20180;-96
2020/12/27 00:09:44;;;;;;;3.67;2.40;;;3.40;99.90;;;;;;4868244;29;20192;-94
2020/12/27 00:12:14;;;;;;;4.37;2.20;;;3.30;99.90;;;;;;4868416;29;20228;-95
2020/12/27 00:14:40;;;;;;;2.87;2.23;;;3.30;99.90;;;;;;4869935;29;20228;-96
2020/12/27 00:17:10;;;;;;;3.90;2.40;;;3.30;99.90;;;;;;4871043;29;20180;-95
2020/12/27 00:19:39;;;;;;;3.90;2.27;;;3.30;99.90;;;;;;4884623;29;20208;-95
2020/12/27 00:22:06;;;;;;;3.23;2.30;;;3.30;99.90;;;;;;4870661;29;20237;-96
2020/12/27 00:24:31;;;;;;;3.77;2.47;;;3.30;99.90;;;;;;4852979;29;20202;-95
2020/12/27 00:27:00;;;;;;;4.23;2.33;;;3.20;99.90;;;;;;4870011;29;20195;-95
2020/12/27 00:29:26;;;;;;;4.90;2.40;;;3.20;99.90;;;;;;4870034;29;20286;-96
2020/12/27 00:31:52;;;;;;;4.17;2.27;;;3.20;99.90;;;;;;4869925;29;20212;-94
2020/12/27 00:34:19;;;;;;;4.07;2.40;;;3.20;99.90;;;;;;4869297;29;20191;-95
2020/12/27 00:36:45;;;;;;;3.07;2.30;;;3.20;99.90;;;;;;4868188;29;20191;-95
2020/12/27 00:39:14;;;;;;;3.00;1.90;;;3.20;99.90;;;;;;4868989;29;20254;-95
2020/12/27 00:41:40;;;;;;;2.50;2.20;;;3.20;99.90;;;;;;4869650;29;20190;-96
2020/12/27 00:44:06;;;;;;;3.17;2.13;;;3.20;99.90;;;;;;4870001;29;20279;-96
2020/12/27 00:46:32;;;;;;;2.87;2.23;;;3.20;99.90;;;;;;4868406;29;20183;-94
2020/12/27 00:48:58;;;;;;;3.47;2.20;;;3.20;99.90;;;;;;4868958;29;20194;-95
2020/12/27 00:51:25;;;;;;;3.60;2.57;;;3.20;99.90;;;;;;4866490;29;20194;-95
2020/12/27 00:53:52;;;;;;;3.03;2.30;;;3.20;99.90;;;;;;4867253;29;20213;-96
2020/12/27 00:56:18;;;;;;;3.00;2.00;;;3.10;99.90;;;;;;4851206;29;20596;-96
2020/12/27 00:58:43;;;;;;;5.97;2.57;;;3.10;99.90;;;;;;4865528;29;20180;-96
2020/12/27 01:01:12;;;;;;;5.97;2.23;;;3.20;99.90;;;;;;4866167;29;20191;-95
2020/12/27 01:03:39;;;;;;;2.50;1.80;;;3.10;99.90;;;;;;4865540;29;20285;-95
2020/12/27 01:06:07;;;;;;;3.83;2.00;;;3.10;99.90;;;;;;4865824;29;20176;-96
2020/12/27 01:08:33;;;;;;;4.20;2.27;;;3.00;99.90;;;;;;4865721;29;20188;-95
2020/12/27 01:11:00;;;;;;;7.53;2.17;;;3.00;99.90;;;;;;4864972;29;20246;-94
2020/12/27 01:13:26;;;;;;;2.60;1.83;;;3.00;99.90;;;;;;4865491;29;20191;-94
2020/12/27 01:15:52;;;;;;;3.83;1.97;;;3.00;99.90;;;;;;4865774;29;20283;-95
2020/12/27 01:18:17;;;;;;;2.37;1.90;;;3.00;99.90;;;;;;4865347;29;20219;-95
2020/12/27 01:20:44;;;;;;;3.30;2.03;;;3.00;99.90;;;;;;4882653;29;20260;-95
2020/12/27 01:23:10;;;;;;;3.40;1.97;;;3.00;99.90;;;;;;4867984;29;20183;-94
2020/12/27 01:25:35;;;;;;;4.30;1.93;;;3.00;99.90;;;;;;4867103;29;20224;-94
2020/12/27 01:28:02;;;;;;;4.33;2.07;;;3.00;99.90;;;;;;4866926;29;20187;-94
2020/12/27 01:30:27;;;;;;;3.67;2.00;;;3.10;99.90;;;;;;4864095;29;20702;-94
2020/12/27 01:32:53;;;;;;;2.47;1.80;;;3.00;99.90;;;;;;4866819;29;20195;-95
2020/12/27 01:35:19;;;;;;;2.27;1.77;;;3.00;99.90;;;;;;4880855;29;20190;-95
2020/12/27 01:37:45;;;;;;;4.00;2.03;;;3.00;99.90;;;;;;4864782;29;20638;-95
2020/12/27 01:40:11;;;;;;;2.47;2.00;;;3.00;99.90;;;;;;4865492;29;20233;-96
2020/12/27 01:42:37;;;;;;;4.03;1.97;;;3.00;99.90;;;;;;4865176;29;20193;-94
2020/12/27 01:45:04;;;;;;;2.37;2.00;;;3.00;99.90;;;;;;4866893;29;20214;-94
2020/12/27 01:47:33;;;;;;;4.40;1.80;;;2.90;99.90;;;;;;4865656;29;20642;-95
2020/12/27 01:50:00;;;;;;;2.70;1.83;;;3.00;99.90;;;;;;4867482;29;20243;-96
2020/12/27 01:52:27;;;;;;;3.50;1.80;;;2.90;99.90;;;;;;4851011;29;20196;-96
2020/12/27 01:54:53;;;;;;;4.20;1.90;;;2.90;99.90;;;;;;4851488;29;20188;-93
2020/12/27 01:57:38;;;;;;;2.97;1.83;;;2.90;99.90;;;;;;4867398;29;20177;-94
2020/12/27 02:00:05;;;;;;;2.67;1.87;;;2.90;99.90;;;;;;4850190;29;20249;-95
2020/12/27 02:02:31;;;;;;;3.17;2.00;;;2.90;99.90;;;;;;4865666;29;20684;-95
2020/12/27 02:04:56;;;;;;;5.00;2.13;;;2.80;99.90;;;;;;4864751;29;20194;-95
2020/12/27 02:07:27;;;;;;;2.30;1.80;;;2.90;99.90;;;;;;4865636;29;20190;-94
2020/12/27 02:09:54;;;;;;;2.67;1.80;;;2.90;99.90;;;;;;4865447;29;20190;-94
2020/12/27 02:12:25;;;;;;;4.33;2.10;;;2.90;99.90;;;;;;4861297;29;20287;-93
2020/12/27 02:14:53;;;;;;;3.73;2.07;;;2.90;99.90;;;;;;4861322;29;20686;-95
2020/12/27 02:17:18;;;;;;;4.37;1.87;;;2.90;99.90;;;;;;4862021;29;20197;-95
2020/12/27 02:19:45;;;;;;;2.03;1.83;;;2.90;99.90;;;;;;4862185;29;20231;-95
2020/12/27 02:22:11;;;;;;;3.23;1.87;;;2.90;99.90;;;;;;4861610;29;20236;-96
2020/12/27 02:24:38;;;;;;;3.03;1.90;;;2.80;99.90;;;;;;4861593;29;20634;-96
2020/12/27 02:27:05;;;;;;;3.03;1.87;;;2.80;99.90;;;;;;4864049;29;20260;-94
2020/12/27 02:29:34;;;;;;;3.13;2.20;;;2.80;99.90;;;;;;4864498;29;20188;-94
2020/12/27 02:32:00;;;;;;;5.50;2.10;;;2.80;99.90;;;;;;4865590;29;20613;-96
2020/12/27 02:34:26;;;;;;;3.17;2.03;;;2.80;99.90;;;;;;4865727;29;20288;-94
2020/12/27 02:36:52;;;;;;;4.50;1.93;;;2.90;99.90;;;;;;4865570;29;20211;-95
2020/12/27 02:39:19;;;;;;;2.67;1.70;;;2.80;99.90;;;;;;4864381;29;20216;-94
2020/12/27 02:41:49;;;;;;;3.17;1.90;;;2.80;99.90;;;;;;4850063;29;20199;-95
2020/12/27 02:44:15;;;;;;;3.20;1.87;;;2.90;99.90;;;;;;4863917;29;20277;-95
2020/12/27 02:46:41;;;;;;;3.50;1.40;;;2.90;99.90;;;;;;4864347;29;20211;-95
2020/12/27 02:49:07;;;;;;;2.13;1.70;;;2.90;99.90;;;;;;4864768;29;20267;-96
2020/12/27 02:51:32;;;;;;;2.43;1.90;;;2.90;99.90;;;;;;4864071;29;20279;-96
2020/12/27 02:53:58;;;;;;;4.13;1.90;;;2.90;99.90;;;;;;4864099;29;20181;-95
2020/12/27 02:56:29;;;;;;;3.50;2.00;;;2.90;99.90;;;;;;4864558;29;20689;-95
2020/12/27 02:59:00;;;;;;;2.57;1.87;;;2.90;99.90;;;;;;4864038;29;20618;-95
2020/12/27 03:01:26;;;;;;;2.57;2.07;;;2.90;99.90;;;;;;4864757;29;20215;-96
2020/12/27 03:03:52;;;;;;;3.47;2.20;;;2.80;99.90;;;;;;4865025;29;20272;-96
2020/12/27 03:06:18;;;;;;;3.63;2.23;;;2.80;99.90;;;;;;4864715;29;20604;-96
2020/12/27 03:08:45;;;;;;;2.63;1.80;;;2.70;99.90;;;;;;4867209;29;20248;-95
2020/12/27 03:11:11;;;;;;;3.53;2.17;;;2.80;99.90;;;;;;4865585;29;20261;-95
2020/12/27 03:13:37;;;;;;;2.93;2.20;;;2.70;99.90;;;;;;4866522;29;20627;-95
2020/12/27 03:16:05;;;;;;;4.03;2.07;;;2.70;99.90;;;;;;4864765;29;20184;-96
2020/12/27 03:18:32;;;;;;;5.10;2.20;;;2.70;99.90;;;;;;4867322;29;20177;-95
2020/12/27 03:20:58;;;;;;;4.33;2.43;;;2.70;99.90;;;;;;4864814;29;20201;-95
2020/12/27 03:23:24;;;;;;;4.67;2.27;;;2.70;99.90;;;;;;4865859;29;20322;-96
2020/12/27 03:25:52;;;;;;;4.77;2.33;;;2.80;99.90;;;;;;4867868;29;20192;-96
2020/12/27 03:28:17;;;;;;;3.23;1.90;;;2.80;99.90;;;;;;4849428;29;20233;-96
2020/12/27 03:30:43;;;;;;;3.87;2.70;;;2.70;99.90;;;;;;4864673;29;20188;-94
2020/12/27 03:33:10;;;;;;;3.93;2.00;;;2.70;99.90;;;;;;4863567;29;20199;-94
2020/12/27 03:35:35;;;;;;;2.77;2.10;;;2.70;99.90;;;;;;4863836;29;20294;-94
2020/12/27 03:38:01;;;;;;;3.20;2.10;;;2.70;99.90;;;;;;4863845;29;20288;-95
2020/12/27 03:40:27;;;;;;;3.77;1.90;;;2.70;99.90;;;;;;4864362;29;20221;-94
2020/12/27 03:42:52;;;;;;;3.80;2.20;;;2.70;99.90;;;;;;4867169;29;20185;-94
2020/12/27 03:45:18;;;;;;;2.83;1.93;;;2.80;99.90;;;;;;4863837;29;20526;-96
2020/12/27 03:47:44;;;;;;;2.83;1.90;;;2.80;99.90;;;;;;4867313;29;20630;-95
2020/12/27 03:50:10;;;;;;;2.43;2.00;;;2.80;99.90;;;;;;4865134;29;20221;-96
2020/12/27 03:52:36;;;;;;;3.83;1.90;;;2.80;99.90;;;;;;4863707;29;20185;-95
2020/12/27 03:55:02;;;;;;;4.23;2.47;;;2.80;99.90;;;;;;4865938;29;20275;-94
2020/12/27 03:57:30;;;;;;;2.33;2.00;;;2.80;99.90;;;;;;4867586;29;20180;-96
2020/12/27 03:59:55;;;;;;;5.90;1.83;;;2.80;99.90;;;;;;4867285;29;20217;-95
2020/12/27 04:02:21;;;;;;;2.97;1.70;;;2.90;99.90;;;;;;4866394;29;20655;-95
2020/12/27 04:04:47;;;;;;;2.77;1.90;;;2.90;99.90;;;;;;4865204;29;20200;-96
2020/12/27 04:07:13;;;;;;;4.97;1.97;;;2.90;99.90;;;;;;4863529;29;20209;-96
2020/12/27 04:09:38;;;;;;;3.07;1.60;;;2.80;99.90;;;;;;4864592;29;20204;-94
2020/12/27 04:12:04;;;;;;;1.80;1.60;;;2.80;99.90;;;;;;4863538;29;20236;-95
2020/12/27 04:14:30;;;;;;;2.33;1.73;;;2.80;99.90;;;;;;4862781;29;20271;-95
2020/12/27 04:16:56;;;;;;;2.37;1.67;;;2.80;99.90;;;;;;4863776;29;20214;-95
2020/12/27 04:19:21;;;;;;;2.83;1.90;;;2.80;99.90;;;;;;4865276;29;20227;-95
2020/12/27 04:21:47;;;;;;;2.00;1.80;;;2.80;99.90;;;;;;4864012;29;20195;-92
2020/12/27 04:24:14;;;;;;;2.00;1.57;;;2.70;99.90;;;;;;4865315;29;20196;-96
2020/12/27 04:26:40;;;;;;;1.70;1.50;;;2.70;99.90;;;;;;4863522;29;20319;-95
2020/12/27 04:29:06;;;;;;;4.43;1.80;;;2.80;99.90;;;;;;4865536;29;20180;-94
2020/12/27 04:31:32;;;;;;;2.67;1.50;;;2.70;99.90;;;;;;4863073;29;20197;-96
2020/12/27 04:33:58;;;;;;;1.73;1.57;;;2.70;99.90;;;;;;4863128;29;20521;-94
2020/12/27 04:36:24;;;;;;;4.87;1.70;;;2.70;99.90;;;;;;4863953;29;20640;-93
2020/12/27 04:38:50;;;;;;;1.80;1.50;;;2.70;99.90;;;;;;4864358;29;20191;-95
2020/12/27 04:41:18;;;;;;;2.90;1.73;;;2.70;99.90;;;;;;4864501;29;20282;-96
2020/12/27 04:43:47;;;;;;;2.67;1.83;;;2.70;99.90;;;;;;4863481;29;20364;-96
2020/12/27 04:46:15;;;;;;;1.93;1.53;;;2.80;99.90;;;;;;4862670;29;20181;-93
2020/12/27 04:48:42;;;;;;;2.60;1.60;;;2.80;99.90;;;;;;4863156;29;20192;-94
2020/12/27 04:51:09;;;;;;;2.50;1.50;;;2.80;99.90;;;;;;4862835;29;20193;-94
2020/12/27 04:53:37;;;;;;;2.33;1.17;;;2.80;99.90;;;;;;4863192;29;20197;-94
2020/12/27 04:56:04;;;;;;;3.50;1.63;;;2.80;99.90;;;;;;4862872;29;20178;-96
2020/12/27 04:58:30;;;;;;;2.37;1.40;;;2.80;99.90;;;;;;4862285;29;20180;-96
2020/12/27 05:00:57;;;;;;;1.50;1.20;;;2.80;99.90;;;;;;4862470;29;20219;-96
2020/12/27 05:03:23;;;;;;;2.77;1.50;;;2.80;99.90;;;;;;4863157;29;20245;-96
2020/12/27 05:05:50;;;;;;;1.70;0.93;;;2.80;99.90;;;;;;4864015;29;20571;-96
2020/12/27 05:08:16;;;;;;;4.40;1.10;;;2.80;99.90;;;;;;4865435;29;20173;-94
2020/12/27 05:10:43;;;;;;;2.83;1.50;;;2.90;99.90;;;;;;4863627;29;20188;-95
2020/12/27 05:13:13;;;;;;;3.70;1.43;;;2.80;99.90;;;;;;4868220;29;20224;-96
2020/12/27 05:15:40;;;;;;;1.47;1.27;;;2.80;99.90;;;;;;4864342;29;20184;-95
2020/12/27 05:18:07;;;;;;;2.13;1.23;;;2.90;99.90;;;;;;4866546;29;20211;-95
2020/12/27 05:20:35;;;;;;;1.60;1.10;;;2.80;99.90;;;;;;4866040;29;20220;-96
2020/12/27 05:23:02;;;;;;;1.60;1.10;;;2.80;99.90;;;;;;4867786;29;20176;-96
2020/12/27 05:25:33;;;;;;;1.70;1.00;;;2.80;99.90;;;;;;4867735;29;20191;-95
2020/12/27 05:28:09;;;;;;;1.20;0.90;;;2.90;99.90;;;;;;4866971;29;20219;-95
2020/12/27 05:30:36;;;;;;;3.37;1.07;;;2.90;99.90;;;;;;4866611;29;20260;-93
2020/12/27 05:33:13;;;;;;;1.43;0.90;;;3.00;99.90;;;;;;4866180;29;20184;-96
2020/12/27 05:35:39;;;;;;;3.17;1.00;;;3.00;99.90;;;;;;4865510;29;20183;-95
2020/12/27 05:38:06;;;;;;;2.17;1.17;;;2.90;99.90;;;;;;4865778;29;20180;-93
2020/12/27 05:40:37;;;;;;;1.93;0.87;;;2.90;99.90;;;;;;4866415;29;20226;-94
2020/12/27 05:43:21;;;;;;;3.37;1.20;;;2.90;99.90;;;;;;4865316;29;20183;-96
2020/12/27 05:45:47;;;;;;;1.73;1.00;;;2.80;99.90;;;;;;4865013;29;20675;-96
2020/12/27 05:48:13;;;;;;;2.13;1.00;;;2.80;99.90;;;;;;4866674;29;20184;-95
2020/12/27 05:50:42;;;;;;;1.53;0.90;;;2.90;99.90;;;;;;4865994;29;20188;-95
2020/12/27 05:53:22;;;;;;;1.47;0.97;;;2.90;99.90;;;;;;4866931;29;20454;-94
2020/12/27 05:55:52;;;;;;;1.97;0.97;;;2.80;99.90;;;;;;4865245;29;20262;-96
2020/12/27 05:58:23;;;;;;;2.07;1.07;;;2.80;99.90;;;;;;4853150;29;20184;-94
2020/12/27 06:00:58;;;;;;;2.33;0.83;;;2.80;99.90;;;;;;4866947;29;20212;-95
2020/12/27 06:03:26;;;;;;;1.23;1.00;;;2.90;99.90;;;;;;4870353;29;20531;-95
2020/12/27 06:05:55;;;;;;;2.03;1.00;;;2.90;99.90;;;;;;4869369;29;20525;-95
2020/12/27 06:08:27;;;;;;;3.27;1.00;;;2.80;99.90;;;;;;4868281;29;20182;-95
2020/12/27 06:10:59;;;;;;;2.40;0.90;;;2.90;99.90;;;;;;4868921;29;20177;-94
2020/12/27 06:14:00;;;;;;;1.00;0.90;;;2.90;99.90;;;;;;4869293;29;20282;-96
2020/12/27 06:16:49;;;;;;;3.07;1.00;;;2.90;99.90;;;;;;4869076;29;20230;-95
2020/12/27 06:19:24;;;;;;;2.07;0.90;;;2.90;99.90;;;;;;4857450;29;20568;-95
2020/12/27 06:22:05;;;;;;;1.27;0.90;;;2.90;99.90;;;;;;4868342;29;20186;-94
2020/12/27 06:24:31;;;;;;;2.70;0.90;;;2.90;99.90;;;;;;4868595;29;20180;-94
2020/12/27 06:26:58;;;;;;;1.63;0.90;;;2.90;99.90;;;;;;4868748;29;20188;-95
2020/12/27 06:29:51;;;;;;;1.80;0.80;;;2.80;99.90;;;;;;4868873;29;20222;-93
2020/12/27 06:32:22;;;;;;;1.77;0.80;;;2.90;99.90;;;;;;4858074;29;20195;-94
2020/12/27 06:34:48;;;;;;;1.43;0.90;;;2.90;99.90;;;;;;4867897;29;20187;-94
2020/12/27 06:37:17;;;;;;;2.53;1.20;;;2.90;99.90;;;;;;4867986;29;20498;-94
2020/12/27 06:39:45;;;;;;;1.23;1.03;;;2.90;99.90;;;;;;4868707;29;20208;-94
2020/12/27 06:42:16;;;;;;;0.80;0.73;;;2.90;99.90;;;;;;4868144;29;20188;-95
2020/12/27 06:44:50;;;;;;;2.10;1.10;;;2.90;99.90;;;;;;4874846;29;20173;-96
2020/12/27 06:47:17;;;;;;;1.37;0.80;;;3.00;99.90;;;;;;4869289;29;20187;-95
2020/12/27 06:49:43;;;;;;;1.93;0.80;;;3.00;99.90;;;;;;4869427;29;20195;-94
2020/12/27 06:52:20;;;;;;;2.30;0.70;;;3.00;99.90;;;;;;4868299;29;20208;-95
2020/12/27 06:54:53;;;;;;;1.33;0.77;;;3.00;99.90;;;;;;4869237;29;20185;-95
2020/12/27 06:57:43;;;;;;;1.80;0.80;;;3.10;99.90;;;;;;4868666;29;20179;-94
2020/12/27 07:00:30;;;;;;;0.70;0.67;;;3.10;99.90;;;;;;4871474;29;20215;-96
2020/12/27 07:03:20;;;;;;;1.10;0.70;;;3.10;99.90;;;;;;4869430;29;20199;-96
2020/12/27 07:05:47;;;;;;;0.80;0.77;;;3.20;99.90;;;;;;4859212;29;20192;-95
2020/12/27 07:08:15;;;;;;;1.33;0.73;;;3.20;99.90;;;;;;4870924;29;20498;-95
2020/12/27 07:10:49;;;;;;;1.47;0.83;;;3.20;99.90;;;;;;4868371;29;20180;-94
2020/12/27 07:13:17;;;;;;;1.70;0.83;;;3.20;99.90;;;;;;4869892;29;20183;-96
2020/12/27 07:15:51;;;;;;;0.70;0.60;;;3.30;99.90;;;;;;4868266;29;20180;-96
2020/12/27 07:18:27;;;;;;;1.63;0.80;;;3.30;99.90;;;;;;4869450;29;20188;-96
2020/12/27 07:20:58;;;;;;;1.83;0.57;;;3.20;99.90;;;;;;4869410;29;20223;-96
2020/12/27 07:23:29;;;;;;;1.40;0.70;;;3.30;99.90;;;;;;4870395;29;20188;-94
2020/12/27 07:26:00;;;;;;;1.47;0.73;;;3.30;99.90;;;;;;4870310;29;20187;-96
2020/12/27 07:28:27;;;;;;;1.97;0.80;;;3.30;99.90;;;;;;4869696;29;20180;-94
2020/12/27 07:31:06;;;;;;;2.30;0.80;;;3.40;99.90;;;;;;4868424;29;20191;-95
2020/12/27 07:33:34;;;;;;;1.20;0.73;;;3.40;99.90;;;;;;4856671;29;20207;-96
2020/12/27 07:36:09;;;;;;;0.80;0.70;;;3.40;99.90;;;;;;4853090;29;20507;-95
2020/12/27 07:39:05;;;;;;;0.90;0.70;;;3.40;99.90;;;;;;4869857;29;20669;-94
2020/12/27 07:41:37;;;;;;;0.97;0.57;;;3.30;99.90;;;;;;4866087;29;20201;-93
2020/12/27 07:44:10;;;;;;;1.80;0.90;;;3.40;99.90;;;;;;4866811;29;20186;-95
2020/12/27 07:46:36;;;;;;;0.80;0.53;;;3.40;99.90;;;;;;4867008;29;20184;-94
2020/12/27 07:49:02;;;;;;;1.00;0.80;;;3.40;99.90;;;;;;4866722;29;20210;-93
2020/12/27 07:51:28;;;;;;;0.60;0.50;;;3.40;99.90;;;;;;4866728;29;20180;-96
2020/12/27 07:53:57;;;;;;;1.57;0.90;;;3.40;99.90;;;;;;4866382;29;20327;-93
2020/12/27 07:56:27;;;;;;;1.20;0.70;;;3.40;99.90;;;;;;4865988;29;20628;-93
2020/12/27 07:58:55;;;;;;;1.00;0.70;;;3.40;99.90;;;;;;4860658;29;20184;-94
2020/12/27 08:01:34;;;;;;;1.33;0.73;;;3.40;99.90;;;;;;4859913;29;20178;-96
2020/12/27 08:04:02;;;;;;;1.10;0.80;;;3.40;99.90;;;;;;4865733;29;20218;-96
2020/12/27 08:06:30;;;;;;;2.10;1.00;;;3.40;99.90;;;;;;4865643;29;20194;-92
2020/12/27 08:09:02;;;;;;;1.73;0.80;;;3.40;99.90;;;;;;4866340;29;20219;-96
2020/12/27 08:11:28;;;;;;;1.50;0.70;;;3.40;99.90;;;;;;4863158;29;20237;-96
2020/12/27 08:13:57;;;;;;;1.47;0.97;;;3.50;99.90;;;;;;4863112;29;20188;-95
2020/12/27 08:16:23;;;;;;;1.20;0.93;;;3.50;99.90;;;;;;4862805;29;20189;-96
2020/12/27 08:19:13;;;;;;;2.03;0.80;;;3.50;99.90;;;;;;4862471;29;20279;-94
2020/12/27 08:21:41;;;;;;;1.70;0.70;;;3.50;99.90;;;;;;4863013;29;20283;-96
2020/12/27 08:24:09;;;;;;;2.40;0.70;;;3.60;99.90;;;;;;4862698;29;20188;-93
2020/12/27 08:26:38;;;;;;;0.80;0.73;;;3.60;99.90;;;;;;4852739;29;20196;-93
2020/12/27 08:29:15;;;;;;;0.80;0.60;;;3.70;99.90;;;;;;4851238;29;20608;-93
2020/12/27 08:31:45;;;;;;;2.00;0.80;;;3.60;99.90;;;;;;4877012;29;20190;-95
2020/12/27 08:34:19;;;;;;;0.87;0.60;;;3.60;99.90;;;;;;4856793;29;20526;-94
2020/12/27 08:36:56;;;;;;;1.33;0.80;;;3.70;99.90;;;;;;4853390;29;20236;-93
2020/12/27 08:39:56;;;;;;;0.80;0.60;;;3.80;99.90;;;;;;4853482;29;20201;-94
2020/12/27 08:42:40;;;;;;;2.20;0.67;;;3.80;99.90;;;;;;4843981;29;20184;-93
2020/12/27 08:45:12;;;;;;;1.53;0.80;;;3.80;99.90;;;;;;4843798;29;20178;-92
2020/12/27 08:47:55;;;;;;;1.20;0.63;;;3.80;99.90;;;;;;4844026;29;20197;-94
2020/12/27 08:50:24;;;;;;;1.07;0.83;;;3.80;99.90;;;;;;4860834;29;20181;-95
2020/12/27 08:52:58;;;;;;;1.33;0.80;;;3.80;99.90;;;;;;4846266;29;20210;-94
2020/12/27 08:55:27;;;;;;;2.50;0.70;;;3.80;99.90;;;;;;4843970;29;20244;-96
2020/12/27 08:57:56;;;;;;;3.00;1.17;;;3.90;99.90;;;;;;4846986;29;20275;-94
2020/12/27 09:00:21;;;;;;;1.43;0.87;;;3.90;99.90;;;;;;4845924;29;20272;-95
2020/12/27 09:03:00;;;;;;;4.03;0.80;;;3.90;99.90;;;;;;4854866;29;20215;-94
2020/12/27 09:05:32;;;;;;;3.80;0.90;;;3.90;99.90;;;;;;4862301;29;20184;-95
2020/12/27 09:07:58;;;;;;;1.00;0.80;;;3.90;99.90;;;;;;4861930;29;20184;-93
2020/12/27 09:10:26;;;;;;;3.67;0.93;;;4.00;99.90;;;;;;4861844;29;20248;-95
2020/12/27 09:13:00;;;;;;;1.30;1.00;;;4.00;99.90;;;;;;4861473;29;20236;-94
2020/12/27 09:15:46;;;;;;;4.20;0.90;;;4.10;99.90;;;;;;4851268;29;20198;-94
2020/12/27 09:18:17;;;;;;;3.33;1.00;;;4.00;99.90;;;;;;4856966;29;20185;-94
2020/12/27 09:20:46;;;;;;;1.10;0.90;;;4.00;99.90;;;;;;4853170;29;20242;-94
2020/12/27 09:23:13;;;;;;;0.93;0.80;;;4.00;99.90;;;;;;4858968;29;20204;-93
2020/12/27 09:25:40;;;;;;;1.60;1.20;;;4.00;99.90;;;;;;4849532;29;20184;-95
2020/12/27 09:28:17;;;;;;;1.33;0.70;;;4.00;99.90;;;;;;4859833;29;20233;-94
2020/12/27 09:30:44;;;;;;;2.70;0.83;;;4.10;99.90;;;;;;4847452;29;20188;-95
2020/12/27 09:33:10;;;;;;;3.10;1.13;;;4.10;99.90;;;;;;4861549;29;20677;-95
2020/12/27 09:35:36;;;;;;;1.57;1.07;;;4.10;99.90;;;;;;4856193;29;20183;-95
2020/12/27 09:38:02;;;;;;;1.43;1.20;;;4.10;99.90;;;;;;4856732;29;20220;-95
2020/12/27 09:40:28;;;;;;;2.27;0.90;;;4.10;99.90;;;;;;4851970;29;20227;-95
2020/12/27 09:43:03;;;;;;;2.07;1.00;;;4.10;99.90;;;;;;4863393;29;20222;-96
2020/12/27 09:45:31;;;;;;;1.50;0.93;;;4.10;99.90;;;;;;4860097;29;20188;-95
2020/12/27 09:48:01;;;;;;;2.40;1.20;;;4.10;99.90;;;;;;4850040;29;20187;-94
2020/12/27 09:50:35;;;;;;;1.20;1.00;;;4.10;99.90;;;;;;4853798;29;20263;-94
2020/12/27 09:53:03;;;;;;;1.40;1.00;;;4.10;99.90;;;;;;4856430;29;20179;-95
2020/12/27 09:55:29;;;;;;;1.97;1.00;;;4.20;99.90;;;;;;4857336;29;20203;-94
2020/12/27 09:57:55;;;;;;;4.53;1.37;;;4.20;99.90;;;;;;4864851;29;20235;-94
2020/12/27 10:00:21;;;;;;;1.90;1.00;;;4.20;99.90;;;;;;4850412;29;20674;-93
2020/12/27 10:02:47;;;;;;;2.40;1.50;;;4.10;99.90;;;;;;4857143;29;20244;-93
2020/12/27 10:05:14;;;;;;;1.40;1.30;;;4.10;99.90;;;;;;4858960;29;20189;-94
2020/12/27 10:07:40;;;;;;;2.43;1.30;;;4.10;99.90;;;;;;4855630;29;20181;-94
2020/12/27 10:10:09;;;;;;;1.40;1.30;;;4.10;99.90;;;;;;4852217;29;20184;-94
2020/12/27 10:12:35;;;;;;;1.80;1.30;;;4.00;99.90;;;;;;4861187;29;20330;-93
2020/12/27 10:15:01;;;;;;;1.97;1.20;;;4.00;99.90;;;;;;4851582;29;20265;-93
2020/12/27 10:17:28;;;;;;;1.80;1.30;;;4.10;99.90;;;;;;4857547;29;20216;-95
2020/12/27 10:19:58;;;;;;;1.73;1.30;;;4.10;99.90;;;;;;4857652;29;20230;-96
2020/12/27 10:22:27;;;;;;;1.70;1.33;;;4.10;99.90;;;;;;4850498;29;20192;-95
2020/12/27 10:24:53;;;;;;;1.67;1.20;;;4.20;99.90;;;;;;4849905;29;20188;-94
2020/12/27 10:27:19;;;;;;;2.83;1.57;;;4.20;99.90;;;;;;4859485;29;20642;-96
2020/12/27 10:29:45;;;;;;;1.60;1.30;;;4.20;99.90;;;;;;4857005;29;20188;-95
2020/12/27 10:32:11;;;;;;;1.97;1.43;;;4.20;99.90;;;;;;4858637;29;20619;-94
2020/12/27 10:34:37;;;;;;;1.83;1.40;;;4.20;99.90;;;;;;4864021;29;20196;-95
2020/12/27 10:37:04;;;;;;;2.37;1.50;;;4.20;99.90;;;;;;4851324;29;20211;-96
2020/12/27 10:39:30;;;;;;;4.60;1.50;;;4.20;99.90;;;;;;4857147;29;20213;-94
2020/12/27 10:41:57;;;;;;;6.60;1.43;;;4.30;99.90;;;;;;4857571;29;20184;-95
2020/12/27 10:44:26;;;;;;;2.83;1.47;;;4.30;99.90;;;;;;4850302;29;20192;-96
2020/12/27 10:46:52;;;;;;;1.40;1.20;;;4.30;99.90;;;;;;4852902;29;20192;-95
2020/12/27 10:49:22;;;;;;;5.87;1.40;;;4.30;99.90;;;;;;4857318;29;20276;-93
2020/12/27 10:51:49;;;;;;;1.67;1.20;;;4.30;99.90;;;;;;4853379;29;20511;-94
2020/12/27 10:54:14;;;;;;;1.47;1.10;;;4.30;99.90;;;;;;4848737;29;20185;-95
2020/12/27 10:56:44;;;;;;;1.57;1.20;;;4.30;99.90;;;;;;4861242;29;20220;-94
2020/12/27 10:59:13;;;;;;;1.70;1.10;;;4.40;99.90;;;;;;4848451;29;20299;-94
2020/12/27 11:01:53;;;;;;;1.90;1.13;;;4.40;99.90;;;;;;4849283;29;20302;-96
2020/12/27 11:04:18;;;;;;;3.03;1.30;;;4.40;99.90;;;;;;4864034;29;20172;-95
2020/12/27 11:06:44;;;;;;;2.67;1.10;;;4.50;99.90;;;;;;4865285;29;20196;-95
2020/12/27 11:09:11;;;;;;;1.60;1.10;;;4.50;99.90;;;;;;4865089;29;20192;-93
2020/12/27 11:11:38;;;;;;;1.40;1.17;;;4.50;99.90;;;;;;4863884;29;20228;-95
2020/12/27 11:14:05;;;;;;;4.07;1.40;;;4.50;99.90;;;;;;4852300;29;20188;-94
2020/12/27 11:16:34;;;;;;;2.20;1.40;;;4.60;99.90;;;;;;4861147;29;20217;-95
2020/12/27 11:19:00;;;;;;;1.97;1.50;;;4.50;99.90;;;;;;4863217;29;20177;-96
2020/12/27 11:21:26;;;;;;;1.87;1.40;;;4.50;99.90;;;;;;4857966;29;20216;-95
2020/12/27 11:23:52;;;;;;;2.67;1.37;;;4.50;99.90;;;;;;4854532;29;20203;-94
2020/12/27 11:26:19;;;;;;;2.10;1.20;;;4.50;99.90;;;;;;4859458;29;20187;-95
2020/12/27 11:28:46;;;;;;;1.63;1.40;;;4.50;99.90;;;;;;4855701;29;20188;-95
2020/12/27 11:31:14;;;;;;;3.43;1.30;;;4.40;99.90;;;;;;4862896;29;20188;-95
2020/12/27 11:33:40;;;;;;;1.43;1.13;;;4.30;99.90;;;;;;4861960;29;20192;-95
2020/12/27 11:36:06;;;;;;;2.07;1.43;;;4.40;99.90;;;;;;4848426;29;20340;-94
2020/12/27 11:38:31;;;;;;;1.87;1.33;;;4.40;99.90;;;;;;4856287;29;20188;-95
2020/12/27 11:40:57;;;;;;;2.00;1.23;;;4.50;99.90;;;;;;4846730;29;20416;-95
2020/12/27 11:43:23;;;;;;;1.27;1.17;;;4.40;99.90;;;;;;4859466;29;20196;-95
2020/12/27 11:45:48;;;;;;;2.27;1.20;;;4.50;99.90;;;;;;4861354;29;20700;-96
2020/12/27 11:48:14;;;;;;;3.03;1.80;;;4.60;99.90;;;;;;4864370;29;20405;-93
2020/12/27 11:50:42;;;;;;;2.27;0.93;;;4.60;99.90;;;;;;4855886;29;20297;-93
2020/12/27 11:53:08;;;;;;;1.20;1.00;;;4.60;99.90;;;;;;4859009;29;20240;-93
2020/12/27 11:55:33;;;;;;;2.17;1.00;;;4.70;99.90;;;;;;4847908;29;20191;-93
2020/12/27 11:57:59;;;;;;;1.03;0.90;;;4.70;99.90;;;;;;4846834;29;20270;-94
2020/12/27 12:00:25;;;;;;;1.63;1.27;;;4.70;99.90;;;;;;4855143;29;20213;-93
2020/12/27 12:02:51;;;;;;;1.57;1.20;;;4.70;99.90;;;;;;4853430;29;20207;-94
2020/12/27 12:05:16;;;;;;;1.60;1.30;;;4.70;99.90;;;;;;4850121;29;20217;-96
2020/12/27 12:07:42;;;;;;;1.10;1.00;;;4.80;99.90;;;;;;4865786;29;20191;-95
2020/12/27 12:10:08;;;;;;;1.80;1.00;;;4.80;99.90;;;;;;4865895;29;20277;-94
2020/12/27 12:12:34;;;;;;;1.50;1.20;;;4.90;99.90;;;;;;4856127;29;20379;-96
2020/12/27 12:15:00;;;;;;;1.43;0.90;;;4.80;99.90;;;;;;4855459;29;20186;-96
2020/12/27 12:17:25;;;;;;;4.37;1.00;;;4.80;99.90;;;;;;4861308;29;20243;-95
2020/12/27 12:19:51;;;;;;;1.50;1.10;;;4.80;99.90;;;;;;4863870;29;20299;-96
2020/12/27 12:22:17;;;;;;;2.93;1.30;;;4.80;99.90;;;;;;4852081;29;20188;-94
2020/12/27 12:24:43;;;;;;;1.63;1.30;;;4.80;99.90;;;;;;4856960;29;20242;-95
2020/12/27 12:27:08;;;;;;;1.43;1.20;;;4.80;99.90;;;;;;4858594;29;20770;-95
2020/12/27 12:29:34;;;;;;;2.80;1.20;;;4.80;99.90;;;;;;4864685;29;20185;-95
2020/12/27 12:32:00;;;;;;;1.70;0.90;;;4.80;99.90;;;;;;4848296;29;20263;-96
2020/12/27 12:34:26;;;;;;;1.23;1.00;;;4.80;99.90;;;;;;4857658;29;20196;-94
2020/12/27 12:36:51;;;;;;;1.77;1.20;;;4.80;99.90;;;;;;4854402;29;20207;-95
2020/12/27 12:39:17;;;;;;;2.70;1.10;;;4.80;99.90;;;;;;4849937;29;20816;-94
2020/12/27 12:41:43;;;;;;;1.80;1.30;;;4.80;99.90;;;;;;4859215;29;20177;-94
2020/12/27 12:44:09;;;;;;;2.27;1.37;;;4.70;99.90;;;;;;4847516;29;20176;-94
2020/12/27 12:46:34;;;;;;;1.90;1.20;;;4.70;99.90;;;;;;4850634;29;20196;-94
2020/12/27 12:49:00;;;;;;;1.10;0.97;;;4.60;99.90;;;;;;4855652;29;20181;-95
2020/12/27 12:51:26;;;;;;;2.67;1.30;;;4.60;99.90;;;;;;4849932;29;20518;-95
2020/12/27 12:53:52;;;;;;;2.03;1.13;;;4.60;99.90;;;;;;4861282;29;20179;-96
2020/12/27 12:56:17;;;;;;;1.70;1.10;;;4.60;99.90;;;;;;4867116;29;20192;-96
2020/12/27 12:58:43;;;;;;;1.83;1.27;;;4.60;99.90;;;;;;4857074;29;20575;-96
2020/12/27 13:01:11;;;;;;;3.90;1.10;;;4.70;99.90;;;;;;4846511;29;20209;-94
2020/12/27 13:03:41;;;;;;;3.03;1.33;;;4.60;99.90;;;;;;4851222;29;20166;-95
2020/12/27 13:06:09;;;;;;;1.97;1.20;;;4.60;99.90;;;;;;4852083;29;20478;-94